Terminal Aerodrome Forecast
Issued by NWS

Home | Current Version | Previous Version | Text Only | Print | Product List | Glossary On
Versions: 1 2 3 4 5 6 7 8 9 10 11 12 13 14 15 16 17 18 19 20 21 22 23 24 25
723
FTUS43 KGRR 230543
TAFAZO
TAF
KAZO 230543Z 2306/2406 20010KT P6SM SCT035
     FM231600 34006KT P6SM SCT025 SCT250
     FM240000 03006KT P6SM OVC100
     FM240100 04005KT 4SM BR OVC025
     FM240200 05006KT 4SM -RA BR OVC007=

USA.gov is the U.S. government's official web portal to all federal, state and local government web resources and services.